Latest Weather Observations for Kadina

IDS60801

Issued at 12:02 pm CST Saturday 23 May 2015 (issued every 30 minutes, with the page automatically refreshed every 10 minutes)

About weather observations | Map of weather stations | Latest weather observations for SA | Other Formats
Station Details ID: 022050 Name: KADINA AWS Lat: -33.97 Lon: 137.66 Height: 41.14 m
Data from the previous 72 hours. | See also: Recent months at Kadina
Date/Time
CST
Temp
°C
App
Temp
°C
Dew
Point
Rel
Hum
%
Delta-T
°C
Wind Press
QNH
hPa
Press
MSL
hPa
Rain
since 9 am
mm
Dir
 
Spd
km/h
Gust
km/h
Spd
kts
Gust
kts
23/12:00pm 16.7 13.9 8.4 58 4.2 NNE 13 19 7 10 1030.2 1030.0 0.0
23/11:30am 16.2 13.5 8.9 62 3.7 NNE 13 19 7 10 1030.8 - 0.0
23/11:00am 14.9 11.7 8.6 66 3.2 NNE 15 20 8 11 1031.2 - 0.0
23/10:30am 13.7 10.5 8.3 70 2.7 NE 15 19 8 10 1031.5 - 0.0
23/10:00am 13.1 9.5 8.2 72 2.4 NE 17 20 9 11 1031.8 - 0.0
23/09:30am 11.6 8.7 8.1 79 1.7 E 13 17 7 9 1031.8 - 0.0
23/09:00am 9.2 6.2 7.8 91 0.7 E 13 15 7 8 1031.8 1031.6 0.0
23/08:30am 6.9 4.0 6.3 96 0.3 ESE 11 15 6 8 1031.6 - 0.0
23/08:00am 4.9 0.8 4.5 97 0.2 ESE 15 17 8 9 1031.3 - 0.0
23/07:30am 3.5 -0.5 2.9 96 0.2 ESE 13 15 7 8 1031.1 - 0.0
23/07:00am 3.2 -1.2 2.6 96 0.2 ESE 15 17 8 9 1031.0 - 0.0
23/06:30am 3.7 -0.6 3.1 96 0.2 ESE 15 17 8 9 1030.8 - 0.0
23/06:00am 4.3 0.5 3.9 97 0.2 SE 13 15 7 8 1030.8 1030.6 0.0
23/05:30am 3.0 -0.7 2.4 96 0.2 ESE 11 13 6 7 1030.7 - 0.0
23/05:00am 4.1 -0.2 3.5 96 0.2 ESE 15 17 8 9 1030.5 - 0.0
23/04:30am 3.5 -0.5 2.9 96 0.2 ESE 13 15 7 8 1030.4 - 0.0
23/04:00am 3.6 -0.7 3.0 96 0.2 ESE 15 15 8 8 1030.3 - 0.0
23/03:30am 3.9 -0.4 3.3 96 0.2 ESE 15 17 8 9 1030.5 - 0.0
23/03:00am 4.8 0.3 4.4 97 0.2 SE 17 19 9 10 1030.6 1030.4 0.0
23/02:30am 3.4 -0.6 2.8 96 0.2 SE 13 15 7 8 1031.0 - 0.0
23/02:00am 4.3 0.1 3.7 96 0.2 ESE 15 17 8 9 1031.2 - 0.0
23/01:30am 4.2 0.0 3.6 96 0.2 SE 15 17 8 9 1031.4 - 0.0
23/01:00am 4.3 0.8 3.7 96 0.2 ESE 11 13 6 7 1031.4 - 0.0
23/12:30am 3.9 0.0 3.3 96 0.2 ESE 13 13 7 7 1031.4 - 0.0
23/12:00am 4.5 0.7 3.9 96 0.2 SE 13 15 7 8 1031.5 1031.3 0.0
 
Date/Time
CST
Temp
°C
App
Temp
°C
Dew
Point
Rel
Hum
%
Delta-T
°C
Wind Press
QNH
hPa
Press
MSL
hPa
Rain
since 9 am
mm
Dir
 
Spd
km/h
Gust
km/h
Spd
kts
Gust
kts
22/11:30pm 5.0 1.3 4.4 96 0.3 ESE 13 15 7 8 1031.5 - 0.0
22/11:00pm 5.3 1.2 4.6 95 0.3 SE 15 15 8 8 1031.5 - 0.0
22/10:30pm 5.5 1.5 4.9 96 0.3 SE 15 17 8 9 1031.3 - 0.0
22/10:00pm 4.7 1.3 3.8 94 0.4 SE 11 13 6 7 1031.4 - 0.0
22/09:30pm 5.7 2.4 4.8 94 0.4 SE 11 13 6 7 1031.5 - 0.0
22/09:00pm 5.9 2.7 5.0 94 0.4 SE 11 17 6 9 1031.4 1031.2 0.0
22/08:30pm 6.6 4.3 5.7 94 0.4 ESE 7 9 4 5 1031.5 - 0.0
22/08:00pm 6.2 3.0 5.0 92 0.5 SE 11 13 6 7 1031.3 - 0.0
22/07:30pm 7.2 3.8 5.7 90 0.7 SE 13 13 7 7 1031.4 - 0.0
22/07:00pm 8.1 5.1 6.2 88 0.9 SSE 11 13 6 7 1031.4 - 0.0
22/06:30pm 8.7 4.7 6.5 86 1.0 SE 17 17 9 9 1031.4 - 0.0
22/06:00pm 9.9 6.7 6.8 81 1.4 SSE 13 15 7 8 1031.4 1031.2 0.0
22/05:30pm 11.4 8.3 7.3 76 2.0 SSE 13 17 7 9 1031.0 - 0.0
22/05:00pm 12.9 9.9 7.8 71 2.5 SSE 13 15 7 8 1030.7 - 0.0
22/04:30pm 14.1 10.0 7.9 66 3.1 SE 19 24 10 13 1030.6 - 0.0
22/04:00pm 14.9 10.8 7.7 62 3.6 ESE 19 24 10 13 1030.5 - 0.0
22/03:30pm 15.3 11.3 8.3 63 3.5 ESE 19 24 10 13 1030.6 - 0.0
22/03:00pm 14.9 11.6 7.9 63 3.5 ESE 15 20 8 11 1030.8 1030.6 0.0
22/02:30pm 16.2 12.4 8.9 62 3.8 SE 19 26 10 14 1030.9 - 0.0
22/02:00pm 14.5 10.9 8.2 66 3.2 SE 17 22 9 12 1031.1 - 0.0
22/01:30pm 15.4 11.8 8.4 63 3.5 SE 17 22 9 12 1031.0 - 0.0
22/01:00pm 14.9 11.3 8.4 65 3.3 SE 17 22 9 12 1031.0 - 0.0
22/12:30pm 15.4 11.8 8.4 63 3.5 SE 17 20 9 11 1031.3 - 0.0
22/12:00pm 14.5 10.4 8.0 65 3.2 SE 19 20 10 11 1031.9 1031.7 0.0
22/11:30am 14.9 12.6 9.1 68 3.0 E 11 15 6 8 1032.3 - 0.0
22/11:00am 14.3 11.1 8.5 68 2.9 SE 15 20 8 11 1032.7 - 0.0
22/10:30am 13.7 10.6 9.0 73 2.4 ESE 15 20 8 11 1032.8 - 0.0
22/10:00am 13.5 10.2 9.7 78 2.0 ESE 17 24 9 13 1032.5 - 0.0
22/09:30am 12.8 10.3 9.8 82 1.5 ESE 13 19 7 10 1032.2 - 0.0
22/09:00am 11.7 9.8 10.6 93 0.6 ESE 11 13 6 7 1032.1 1031.9 0.4
22/08:30am 9.5 7.6 9.0 97 0.2 ESE 9 11 5 6 1031.8 - 0.4
22/08:00am 7.0 4.5 6.6 97 0.2 ESE 9 11 5 6 1031.6 - 0.4
22/07:30am 4.6 1.2 4.2 97 0.2 ESE 11 11 6 6 1031.3 - 0.4
22/07:00am 4.1 0.6 3.4 95 0.3 ESE 11 11 6 6 1030.8 - 0.4
22/06:30am 5.4 2.5 4.8 96 0.3 E 9 11 5 6 1030.4 - 0.4
22/06:00am 6.6 4.5 6.0 96 0.3 ESE 6 7 3 4 1030.1 1029.9 0.4
22/05:30am 6.9 4.3 6.3 96 0.3 SSE 9 13 5 7 1029.8 - 0.4
22/05:00am 6.4 3.4 5.8 96 0.3 SSE 11 13 6 7 1029.5 - 0.4
22/04:30am 6.2 3.1 5.5 95 0.3 SE 11 13 6 7 1029.5 - 0.4
22/04:00am 7.2 4.7 6.5 95 0.3 S 9 11 5 6 1029.6 - 0.4
22/03:30am 6.4 3.7 5.5 94 0.4 E 9 11 5 6 1029.8 - 0.4
22/03:00am 7.0 4.8 6.1 94 0.4 ENE 7 9 4 5 1029.9 1029.7 0.4
22/02:30am 6.8 3.7 5.6 92 0.5 SSE 11 11 6 6 1029.8 - 0.4
22/02:00am 8.1 5.2 6.7 91 0.6 SSE 11 13 6 7 1029.9 - 0.4
22/01:30am 9.5 6.2 7.9 90 0.8 SSE 15 20 8 11 1030.0 - 0.4
22/01:00am 9.3 6.8 8.1 92 0.6 S 11 13 6 7 1030.1 - 0.4
22/12:30am 8.0 4.1 6.9 93 0.5 S 17 17 9 9 1030.1 - 0.4
22/12:00am 7.9 4.3 6.7 92 0.5 S 15 17 8 9 1030.1 1029.9 0.4
 
Date/Time
CST
Temp
°C
App
Temp
°C
Dew
Point
Rel
Hum
%
Delta-T
°C
Wind Press
QNH
hPa
Press
MSL
hPa
Rain
since 9 am
mm
Dir
 
Spd
km/h
Gust
km/h
Spd
kts
Gust
kts
21/11:30pm 8.3 4.7 6.9 91 0.7 S 15 19 8 10 1030.0 - 0.4
21/11:00pm 8.1 4.9 6.9 92 0.6 S 13 15 7 8 1030.1 - 0.4
21/10:30pm 8.4 4.9 7.0 91 0.7 S 15 17 8 9 1030.2 - 0.4
21/10:00pm 8.9 5.4 7.2 89 0.8 S 15 17 8 9 1030.3 - 0.4
21/09:30pm 8.5 5.0 7.1 91 0.7 S 15 17 8 9 1030.2 - 0.4
21/09:00pm 7.7 4.7 6.0 89 0.8 SSE 11 13 6 7 1030.1 1029.9 0.4
21/08:30pm 8.7 5.5 6.7 87 0.9 SSE 13 15 7 8 1030.1 - 0.4
21/08:00pm 9.4 5.9 7.2 86 1.0 S 15 17 8 9 1029.9 - 0.4
21/07:30pm 9.3 6.2 7.4 88 0.9 S 13 17 7 9 1029.8 - 0.4
21/07:00pm 8.5 5.2 6.6 88 0.9 S 13 15 7 8 1029.5 - 0.4
21/06:30pm 10.1 6.6 7.2 82 1.4 S 15 15 8 8 1029.3 - 0.4
21/06:00pm 11.9 7.6 8.0 77 1.9 S 20 24 11 13 1029.0 1028.8 0.4
21/05:30pm 12.3 8.9 7.8 74 2.2 S 15 19 8 10 1028.6 - 0.4
21/05:00pm 12.8 10.2 7.7 71 2.5 SSW 11 13 6 7 1028.5 - 0.4
21/04:30pm 13.0 10.0 7.9 71 2.5 SSW 13 17 7 9 1028.4 - 0.4
21/04:00pm 13.4 10.3 7.2 66 3.0 S 13 17 7 9 1028.1 - 0.4
21/03:30pm 13.5 10.7 7.1 65 3.1 SSE 11 17 6 9 1027.8 - 0.4
21/03:00pm 13.5 11.2 7.3 66 3.0 S 9 11 5 6 1028.0 1027.8 0.4
21/02:30pm 13.0 11.3 7.7 70 2.6 SE 6 11 3 6 1027.9 - 0.4
21/02:00pm 13.3 10.8 8.0 70 2.6 ESE 11 19 6 10 1027.9 - 0.4
21/01:30pm 12.9 10.4 8.4 74 2.2 ESE 11 17 6 9 1028.1 - 0.4
21/01:00pm 12.1 10.2 9.1 82 1.5 ESE 9 13 5 7 1028.3 - 0.4
21/12:30pm 13.2 10.9 7.6 69 2.7 ESE 9 15 5 8 1028.4 - 0.2
21/12:00pm 13.3 9.9 7.7 69 2.7 E 15 22 8 12 1028.6 1028.4 0.2
21/11:30am 13.3 10.6 7.5 68 2.8 SE 11 19 6 10 1028.9 - 0.2
21/11:00am 13.3 11.5 8.0 70 2.6 SSE 7 13 4 7 1029.0 - 0.0
21/10:30am 12.8 10.8 8.7 76 2.1 S 9 15 5 8 1029.1 - 0.0
21/10:00am 11.9 9.7 9.3 84 1.3 SSE 11 15 6 8 1028.9 - 0.0
21/09:30am 10.9 8.5 8.8 87 1.0 S 11 15 6 8 1028.6 - 0.0
21/09:00am 10.4 8.0 8.7 89 0.8 S 11 15 6 8 1028.3 1028.1 0.2
21/08:30am 9.7 7.7 8.5 92 0.6 SSW 9 11 5 6 1028.0 - 0.2
21/08:00am 9.2 7.1 8.3 94 0.4 S 9 11 5 6 1027.6 - 0.2
21/07:30am 8.7 6.1 7.8 94 0.4 S 11 15 6 8 1027.2 - 0.2
21/07:00am 8.7 6.4 7.6 93 0.5 SE 9 9 5 5 1026.8 - 0.2
21/06:30am 8.8 6.5 7.6 92 0.6 SE 9 11 5 6 1026.5 - 0.2
21/06:00am 9.1 6.1 7.7 91 0.7 SSE 13 17 7 9 1026.3 1026.1 0.2
21/05:30am 9.4 6.7 7.5 88 0.9 S 11 20 6 11 1026.0 - 0.2
21/05:00am 9.3 4.9 7.6 89 0.8 SE 20 26 11 14 1025.7 - 0.2
21/04:30am 9.3 6.3 7.9 91 0.7 SSE 13 17 7 9 1025.4 - 0.2
21/04:00am 9.1 5.8 7.9 92 0.6 SE 15 19 8 10 1025.1 - 0.2
21/03:30am 8.6 6.0 7.8 95 0.4 SSE 11 15 6 8 1025.2 - 0.2
21/03:00am 7.5 4.7 6.8 95 0.3 S 11 13 6 7 1025.1 1024.9 0.2
21/02:30am 6.6 3.6 5.9 95 0.3 S 11 13 6 7 1025.1 - 0.2
21/02:00am 5.5 1.4 4.6 94 0.4 S 15 15 8 8 1025.1 - 0.2
21/01:30am 5.1 1.3 3.9 92 0.5 S 13 13 7 7 1024.9 - 0.2
21/01:00am 6.0 1.6 4.8 92 0.5 S 17 17 9 9 1024.8 - 0.2
21/12:30am 6.1 1.7 4.9 92 0.5 S 17 19 9 10 1024.7 - 0.2
21/12:00am 6.3 2.3 5.1 92 0.5 S 15 17 8 9 1024.6 1024.4 0.2
 
Date/Time
CST
Temp
°C
App
Temp
°C
Dew
Point
Rel
Hum
%
Delta-T
°C
Wind Press
QNH
hPa
Press
MSL
hPa
Rain
since 9 am
mm
Dir
 
Spd
km/h
Gust
km/h
Spd
kts
Gust
kts
20/11:30pm 6.3 2.0 5.3 93 0.4 S 17 17 9 9 1024.6 - 0.2
20/11:00pm 6.2 2.3 5.2 93 0.4 S 15 17 8 9 1024.5 - 0.2
20/10:30pm 6.5 2.6 5.3 92 0.5 S 15 17 8 9 1024.5 - 0.2
20/10:00pm 7.2 3.4 5.8 91 0.6 S 15 17 8 9 1024.4 - 0.2
20/09:30pm 7.3 3.6 6.1 92 0.5 S 15 15 8 8 1024.3 - 0.0
20/09:00pm 6.9 3.5 5.7 92 0.5 S 13 15 7 8 1024.1 1023.9 0.0
20/08:30pm 7.5 3.7 5.8 89 0.8 S 15 15 8 8 1023.9 - 0.0
20/08:00pm 8.4 4.4 6.7 89 0.8 S 17 20 9 11 1023.5 - 0.0
20/07:30pm 8.0 4.8 6.8 92 0.6 S 13 13 7 7 1023.3 - 0.0
20/07:00pm 7.9 5.0 6.5 91 0.6 S 11 13 6 7 1023.1 - 0.0
20/06:30pm 8.5 5.3 7.0 90 0.7 S 13 13 7 7 1022.8 - 0.0
20/06:00pm 9.5 6.5 7.8 89 0.8 S 13 13 7 7 1022.4 1022.3 0.0
20/05:30pm 10.2 7.6 7.6 84 1.2 SSW 11 15 6 8 1021.9 - 0.0
20/05:00pm 11.7 7.4 8.0 78 1.8 SSW 20 28 11 15 1021.4 - 0.0
20/04:30pm 13.1 8.3 7.5 69 2.7 SSW 22 28 12 15 1021.1 - 0.0
20/04:00pm 13.1 7.5 7.1 67 2.9 SSW 26 30 14 16 1020.9 - 0.0
20/03:30pm 14.3 11.0 9.5 73 2.5 S 17 20 9 11 1020.6 - 0.0
20/03:00pm 15.3 10.0 9.9 70 2.8 SSW 28 37 15 20 1020.3 1020.2 0.0
20/02:30pm 12.9 9.9 9.4 79 1.8 SE 15 20 8 11 1020.2 - 0.0
20/02:00pm 13.9 10.5 9.3 74 2.3 SSE 17 28 9 15 1020.0 - 0.0
20/01:30pm 14.4 10.5 8.6 68 2.9 WSW 19 24 10 13 1019.9 - 0.0
20/01:00pm 14.4 10.9 7.0 61 3.6 S 15 19 8 10 1020.0 - 0.0
20/12:30pm 13.6 12.2 10.8 83 1.5 SW 9 15 5 8 1020.2 - 0.0

Other Formats:

Comma delimited format used in spreadsheet applications
http://www.bom.gov.au/fwo/IDS60801/IDS60801.94685.axf

JavaScript Object Notation format (JSON) in row-major order
http://www.bom.gov.au/fwo/IDS60801/IDS60801.94685.json